createdAt,value
2018-07-08T00:00:42.695Z,19.20
2018-07-08T00:03:10.142Z,19.20
2018-07-08T00:05:37.571Z,19.20
2018-07-08T00:08:05.036Z,19.10
2018-07-08T00:10:32.487Z,19.10
2018-07-08T00:12:59.975Z,19.00
2018-07-08T00:15:27.468Z,19.00
2018-07-08T00:17:54.922Z,19.00
2018-07-08T00:22:49.735Z,18.80
2018-07-08T00:25:17.149Z,18.80
2018-07-08T00:27:44.562Z,18.70
2018-07-08T00:30:12.024Z,18.70
2018-07-08T00:32:39.425Z,18.60
2018-07-08T00:35:06.847Z,18.60
2018-07-08T00:37:34.516Z,18.50
2018-07-08T00:40:01.943Z,18.50
2018-07-08T00:42:29.358Z,18.40
2018-07-08T00:44:56.788Z,18.40
2018-07-08T00:47:24.215Z,18.30
2018-07-08T00:49:51.607Z,18.30
2018-07-08T00:52:19.021Z,18.20
2018-07-08T00:54:46.467Z,18.20
2018-07-08T00:57:13.895Z,18.20
2018-07-08T00:59:41.314Z,18.10
2018-07-08T01:04:36.115Z,18.00
2018-07-08T01:07:03.541Z,18.00
2018-07-08T01:09:30.967Z,18.00
2018-07-08T01:11:58.364Z,17.90
2018-07-08T01:14:25.806Z,17.90
2018-07-08T01:16:53.214Z,17.90
2018-07-08T01:19:20.618Z,17.80
2018-07-08T01:24:15.443Z,17.80
2018-07-08T01:26:43.028Z,17.70
2018-07-08T01:29:10.438Z,17.70
2018-07-08T01:31:37.887Z,17.70
2018-07-08T01:34:05.409Z,17.60
2018-07-08T01:36:32.841Z,17.60
2018-07-08T01:39:00.238Z,17.60
2018-07-08T01:41:27.631Z,17.60
2018-07-08T01:43:55.091Z,17.50
2018-07-08T01:48:49.915Z,17.50
2018-07-08T01:51:17.338Z,17.40
2018-07-08T01:53:44.788Z,17.40
2018-07-08T01:56:12.627Z,17.40
2018-07-08T01:58:40.780Z,17.30
2018-07-08T02:01:08.230Z,17.40
2018-07-08T02:03:35.705Z,17.30
2018-07-08T02:06:03.167Z,17.30
2018-07-08T02:08:30.955Z,17.30
2018-07-08T02:10:58.387Z,17.30
2018-07-08T02:13:25.806Z,17.30
2018-07-08T02:15:53.248Z,17.30
2018-07-08T02:20:48.101Z,17.30
2018-07-08T02:23:15.554Z,17.20
2018-07-08T02:25:42.999Z,17.20
2018-07-08T02:28:10.403Z,17.20
2018-07-08T02:30:37.835Z,17.20
2018-07-08T02:33:05.244Z,17.20
2018-07-08T02:35:32.692Z,17.20
2018-07-08T02:38:00.152Z,17.10
2018-07-08T02:40:27.616Z,17.10
2018-07-08T02:42:55.064Z,17.10
2018-07-08T02:45:22.520Z,17.00
2018-07-08T02:47:50.001Z,17.00
2018-07-08T02:50:17.444Z,17.00
2018-07-08T02:52:45.392Z,16.90
2018-07-08T02:55:12.807Z,16.90
2018-07-08T02:57:40.220Z,16.90
2018-07-08T03:02:35.003Z,16.80
2018-07-08T03:05:02.395Z,16.80
2018-07-08T03:07:29.798Z,16.80
2018-07-08T03:09:57.232Z,16.70
2018-07-08T03:12:24.618Z,16.70
2018-07-08T03:14:52.036Z,16.60
2018-07-08T03:17:19.460Z,16.60
2018-07-08T03:19:46.875Z,16.60
2018-07-08T03:22:14.275Z,16.50
2018-07-08T03:24:41.695Z,16.50
2018-07-08T03:27:09.112Z,16.50
2018-07-08T03:29:36.480Z,16.50
2018-07-08T03:32:03.868Z,16.50
2018-07-08T03:34:31.258Z,16.40
2018-07-08T03:36:58.650Z,16.40
2018-07-08T03:39:26.031Z,16.40
2018-07-08T03:41:53.431Z,16.40
2018-07-08T03:44:20.832Z,16.40
2018-07-08T03:46:48.261Z,16.30
2018-07-08T03:49:15.719Z,16.30
2018-07-08T03:51:43.144Z,16.30
2018-07-08T03:54:38.096Z,16.30
2018-07-08T03:57:05.607Z,16.30
2018-07-08T03:59:33.030Z,16.30
2018-07-08T04:02:00.469Z,16.20
2018-07-08T04:04:27.935Z,16.20
2018-07-08T04:06:55.323Z,16.20
2018-07-08T04:09:22.719Z,16.20
2018-07-08T04:11:50.156Z,16.20
2018-07-08T04:14:17.583Z,16.20
2018-07-08T04:16:45.716Z,16.30
2018-07-08T04:19:13.119Z,16.30
2018-07-08T04:21:40.619Z,16.30
2018-07-08T04:24:08.055Z,16.30
2018-07-08T04:26:35.456Z,16.40
2018-07-08T04:29:02.895Z,16.30
2018-07-08T04:31:30.281Z,16.40
2018-07-08T04:33:57.692Z,16.50
2018-07-08T04:36:25.094Z,16.50
2018-07-08T04:38:52.500Z,16.50
2018-07-08T04:41:19.898Z,16.50
2018-07-08T04:43:47.292Z,16.60
2018-07-08T04:46:14.695Z,16.60
2018-07-08T04:48:42.067Z,16.70
2018-07-08T04:51:09.479Z,16.90
2018-07-08T04:53:37.101Z,16.80
2018-07-08T04:56:04.594Z,16.80
2018-07-08T04:58:32.003Z,16.90
2018-07-08T05:00:59.471Z,16.90
2018-07-08T05:03:26.865Z,17.00
2018-07-08T05:05:54.300Z,17.00
2018-07-08T05:08:21.682Z,17.10
2018-07-08T05:10:49.112Z,17.10
2018-07-08T05:13:16.530Z,17.30
2018-07-08T05:15:43.982Z,17.20
2018-07-08T05:18:11.371Z,17.30
2018-07-08T05:20:38.807Z,17.30
2018-07-08T05:23:06.305Z,17.40
2018-07-08T05:25:33.688Z,17.40
2018-07-08T05:28:01.100Z,17.50
2018-07-08T05:30:28.642Z,17.50
2018-07-08T05:35:23.514Z,17.60
2018-07-08T05:37:50.920Z,17.60
2018-07-08T05:40:18.356Z,17.70
2018-07-08T05:42:45.838Z,17.70
2018-07-08T05:45:13.278Z,17.90
2018-07-08T05:47:40.668Z,18.00
2018-07-08T05:50:08.112Z,18.20
2018-07-08T05:52:35.510Z,18.40
2018-07-08T05:55:02.932Z,18.70
2018-07-08T05:57:30.330Z,19.00
2018-07-08T05:59:57.733Z,19.40
2018-07-08T06:02:25.140Z,19.70
2018-07-08T06:04:52.593Z,20.10
2018-07-08T06:07:20.055Z,20.40
2018-07-08T06:09:47.474Z,20.70
2018-07-08T06:12:14.887Z,20.90
2018-07-08T06:14:42.287Z,21.20
2018-07-08T06:17:09.742Z,21.60
2018-07-08T06:19:37.334Z,21.90
2018-07-08T06:22:04.806Z,22.20
2018-07-08T06:24:32.235Z,22.50
2018-07-08T06:26:59.619Z,22.80
2018-07-08T06:29:27.046Z,23.00
2018-07-08T06:31:54.500Z,23.20
2018-07-08T06:34:22.080Z,23.30
2018-07-08T06:36:49.483Z,23.40
2018-07-08T06:39:16.944Z,23.40
2018-07-08T06:41:44.342Z,23.60
2018-07-08T06:44:11.740Z,23.70
2018-07-08T06:46:39.135Z,23.80
2018-07-08T06:49:06.534Z,23.80
2018-07-08T06:51:33.968Z,23.90
2018-07-08T06:54:01.371Z,24.10
2018-07-08T06:56:28.791Z,24.20
2018-07-08T06:58:56.211Z,24.40
2018-07-08T07:01:23.692Z,24.40
2018-07-08T07:03:51.087Z,24.50
2018-07-08T07:06:18.491Z,24.60
2018-07-08T07:08:45.927Z,24.80
2018-07-08T07:11:13.447Z,25.00
2018-07-08T07:13:40.857Z,25.20
2018-07-08T07:16:08.273Z,25.50
2018-07-08T07:18:35.720Z,25.60
2018-07-08T07:21:03.203Z,25.80
2018-07-08T07:23:30.588Z,25.80
2018-07-08T07:25:58.002Z,25.90
2018-07-08T07:28:25.454Z,25.90
2018-07-08T07:30:52.847Z,25.90
2018-07-08T07:33:20.270Z,25.80
2018-07-08T07:38:15.078Z,25.70
2018-07-08T07:40:42.515Z,25.70
2018-07-08T07:43:10.509Z,25.60
2018-07-08T07:45:37.917Z,25.50
2018-07-08T07:48:05.515Z,25.60
2018-07-08T07:50:32.956Z,25.50
2018-07-08T07:53:00.391Z,25.50
2018-07-08T07:55:28.005Z,25.40
2018-07-08T07:57:55.393Z,25.30
2018-07-08T08:00:22.817Z,25.40
2018-07-08T08:02:50.239Z,25.30
2018-07-08T08:05:17.668Z,25.30
2018-07-08T08:07:45.060Z,25.10
2018-07-08T08:10:12.546Z,25.30
2018-07-08T08:12:39.995Z,25.30
2018-07-08T08:15:07.445Z,25.30
2018-07-08T08:17:35.164Z,25.30
2018-07-08T08:20:02.615Z,25.30
2018-07-08T08:22:30.038Z,25.30
2018-07-08T08:24:57.439Z,25.20
2018-07-08T08:27:24.882Z,25.20
2018-07-08T08:29:52.302Z,25.20
2018-07-08T08:32:19.907Z,25.20
2018-07-08T08:35:00.898Z,25.20
2018-07-08T08:37:33.322Z,25.20
2018-07-08T08:40:00.722Z,25.20
2018-07-08T08:42:28.162Z,25.20
2018-07-08T08:44:56.252Z,25.20
2018-07-08T08:47:24.103Z,25.20
2018-07-08T08:49:52.271Z,25.20
2018-07-08T08:52:19.756Z,25.10
2018-07-08T08:54:47.270Z,25.00
2018-07-08T08:57:14.675Z,25.00
2018-07-08T08:59:42.044Z,25.00
2018-07-08T09:02:09.971Z,25.00
2018-07-08T09:04:38.258Z,25.00
2018-07-08T09:07:05.996Z,25.10
2018-07-08T09:09:33.470Z,25.20
2018-07-08T09:12:01.032Z,25.20
2018-07-08T09:14:28.476Z,25.30
2018-07-08T09:16:55.895Z,25.30
2018-07-08T09:19:23.803Z,25.30
2018-07-08T09:21:52.923Z,25.30
2018-07-08T09:24:20.363Z,25.30
2018-07-08T09:26:47.912Z,25.40
2018-07-08T09:29:15.421Z,25.50
2018-07-08T09:31:42.839Z,25.50
2018-07-08T09:34:10.245Z,25.60
2018-07-08T09:39:08.625Z,25.80
2018-07-08T09:41:36.089Z,25.90
2018-07-08T09:44:03.573Z,25.90
2018-07-08T09:46:31.008Z,25.90
2018-07-08T09:48:58.495Z,25.90
2018-07-08T09:51:25.930Z,26.00
2018-07-08T09:53:53.384Z,26.00
2018-07-08T09:56:20.848Z,26.00
2018-07-08T09:58:48.412Z,26.10
2018-07-08T10:01:15.828Z,26.20
2018-07-08T10:03:43.332Z,26.30
2018-07-08T10:06:10.778Z,26.30
2018-07-08T10:08:38.270Z,26.40
2018-07-08T10:11:05.623Z,26.40
2018-07-08T10:13:33.072Z,26.50
2018-07-08T10:16:00.527Z,26.50
2018-07-08T10:18:27.969Z,26.50
2018-07-08T10:20:55.483Z,26.60
2018-07-08T10:23:23.057Z,26.70
2018-07-08T10:25:50.554Z,26.70
2018-07-08T10:28:21.823Z,27.00
2018-07-08T10:30:49.528Z,27.20
2018-07-08T10:33:16.942Z,27.40
2018-07-08T10:36:03.746Z,27.60
2018-07-08T10:38:31.522Z,27.90
2018-07-08T10:40:59.083Z,28.10
2018-07-08T10:43:26.557Z,28.20
2018-07-08T10:45:54.027Z,28.40
2018-07-08T10:48:21.448Z,28.50
2018-07-08T10:50:49.735Z,28.60
2018-07-08T10:53:17.289Z,28.70
2018-07-08T10:55:44.921Z,28.70
2018-07-08T10:58:12.705Z,28.70
2018-07-08T11:00:40.132Z,28.70
2018-07-08T11:03:07.618Z,28.80
2018-07-08T11:05:35.090Z,28.70
2018-07-08T11:08:02.565Z,28.60
2018-07-08T11:10:30.014Z,28.60
2018-07-08T11:12:57.504Z,28.60
2018-07-08T11:15:25.003Z,28.70
2018-07-08T11:17:52.415Z,28.70
2018-07-08T11:20:20.620Z,28.70
2018-07-08T11:22:48.185Z,28.70
2018-07-08T11:25:15.834Z,28.60
2018-07-08T11:27:43.286Z,28.60
2018-07-08T11:30:10.712Z,28.60
2018-07-08T11:32:38.144Z,28.70
2018-07-08T11:35:06.397Z,28.80
2018-07-08T11:37:33.864Z,28.80
2018-07-08T11:40:01.281Z,29.00
2018-07-08T11:42:28.770Z,29.00
2018-07-08T11:44:56.207Z,29.10
2018-07-08T11:47:23.663Z,29.20
2018-07-08T11:49:51.152Z,29.30
2018-07-08T11:52:18.571Z,29.40
2018-07-08T11:54:45.991Z,29.50
2018-07-08T11:57:13.399Z,29.50
2018-07-08T11:59:40.848Z,29.50
2018-07-08T12:02:08.272Z,29.50
2018-07-08T12:04:35.786Z,29.40
2018-07-08T12:07:03.240Z,29.50
2018-07-08T12:09:30.719Z,29.60
2018-07-08T12:11:58.163Z,29.50
2018-07-08T12:14:25.652Z,29.60
2018-07-08T12:16:53.064Z,29.50
2018-07-08T12:19:20.487Z,29.40
2018-07-08T12:21:47.919Z,29.30
2018-07-08T12:24:15.512Z,29.30
2018-07-08T12:26:43.015Z,29.20
2018-07-08T12:29:10.443Z,29.20
2018-07-08T12:31:37.864Z,29.30
2018-07-08T12:34:05.347Z,29.30
2018-07-08T12:36:32.798Z,29.30
2018-07-08T12:39:00.207Z,29.30
2018-07-08T12:41:27.691Z,29.30
2018-07-08T12:43:55.088Z,29.20
2018-07-08T12:46:22.512Z,29.10
2018-07-08T12:48:49.906Z,29.00
2018-07-08T12:51:17.342Z,28.80
2018-07-08T12:53:44.877Z,28.80
2018-07-08T12:56:12.364Z,28.70
2018-07-08T12:58:39.848Z,28.70
2018-07-08T13:01:07.272Z,28.70
2018-07-08T13:03:34.701Z,28.70
2018-07-08T13:06:02.142Z,28.70
2018-07-08T13:08:29.601Z,28.70
2018-07-08T13:10:57.045Z,28.70
2018-07-08T13:13:24.481Z,28.90
2018-07-08T13:15:52.168Z,29.00
2018-07-08T13:18:19.595Z,29.10
2018-07-08T13:20:47.044Z,29.10
2018-07-08T13:23:14.467Z,29.20
2018-07-08T13:25:41.937Z,29.20
2018-07-08T13:28:09.557Z,29.30
2018-07-08T13:30:37.025Z,29.20
2018-07-08T13:33:04.626Z,29.30
2018-07-08T13:35:32.047Z,29.30
2018-07-08T13:37:59.495Z,29.30
2018-07-08T13:40:26.968Z,29.40
2018-07-08T13:42:54.400Z,29.40
2018-07-08T13:45:21.903Z,29.40
2018-07-08T13:47:49.324Z,29.40
2018-07-08T13:50:16.997Z,29.50
2018-07-08T13:52:44.716Z,29.60
2018-07-08T13:55:12.152Z,29.70
2018-07-08T13:57:39.652Z,29.70
2018-07-08T14:00:07.253Z,29.70
2018-07-08T14:02:34.904Z,29.70
2018-07-08T14:05:02.338Z,29.70
2018-07-08T14:07:29.785Z,29.70
2018-07-08T14:09:57.263Z,29.70
2018-07-08T14:12:24.719Z,29.60
2018-07-08T14:14:52.228Z,29.60
2018-07-08T14:17:19.670Z,29.60
2018-07-08T14:19:47.136Z,29.60
2018-07-08T14:22:14.612Z,29.60
2018-07-08T14:24:42.427Z,29.60
2018-07-08T14:27:09.869Z,29.60
2018-07-08T14:29:37.354Z,29.60
2018-07-08T14:32:04.807Z,29.70
2018-07-08T14:34:32.231Z,29.70
2018-07-08T14:36:59.719Z,29.70
2018-07-08T14:39:27.595Z,29.70
2018-07-08T14:41:55.060Z,29.70
2018-07-08T14:44:22.492Z,29.80
2018-07-08T14:46:49.999Z,29.70
2018-07-08T14:49:17.443Z,29.80
2018-07-08T14:51:44.870Z,29.80
2018-07-08T14:54:12.291Z,29.80
2018-07-08T14:56:39.692Z,29.70
2018-07-08T14:59:07.109Z,29.70
2018-07-08T15:01:34.563Z,29.70
2018-07-08T15:04:01.981Z,29.70
2018-07-08T15:06:29.435Z,29.70
2018-07-08T15:09:01.432Z,29.80
2018-07-08T15:11:29.461Z,29.80
2018-07-08T15:13:56.869Z,29.70
2018-07-08T15:16:24.329Z,29.70
2018-07-08T15:18:51.796Z,29.70
2018-07-08T15:21:19.291Z,29.70
2018-07-08T15:23:46.638Z,29.70
2018-07-08T15:26:14.024Z,29.70
2018-07-08T15:28:41.411Z,29.70
2018-07-08T15:31:08.827Z,29.70
2018-07-08T15:33:36.296Z,29.70
2018-07-08T15:36:03.820Z,29.70
2018-07-08T15:38:31.452Z,29.70
2018-07-08T15:40:58.878Z,29.70
2018-07-08T15:43:26.287Z,29.70
2018-07-08T15:45:53.747Z,29.70
2018-07-08T15:48:21.176Z,29.70
2018-07-08T15:50:48.571Z,29.70
2018-07-08T15:53:16.015Z,29.60
2018-07-08T15:55:43.461Z,29.60
2018-07-08T15:58:10.855Z,29.60
2018-07-08T16:00:38.264Z,29.60
2018-07-08T16:03:05.723Z,29.50
2018-07-08T16:05:33.125Z,29.60
2018-07-08T16:08:00.567Z,29.60
2018-07-08T16:10:27.972Z,29.50
2018-07-08T16:12:55.420Z,29.50
2018-07-08T16:15:22.854Z,29.50
2018-07-08T16:17:50.608Z,29.40
2018-07-08T16:20:18.319Z,29.30
2018-07-08T16:22:45.735Z,29.20
2018-07-08T16:25:13.133Z,29.20
2018-07-08T16:27:40.603Z,29.20
2018-07-08T16:30:08.161Z,29.10
2018-07-08T16:32:35.825Z,29.10
2018-07-08T16:35:03.299Z,29.10
2018-07-08T16:37:30.836Z,29.10
2018-07-08T16:39:58.262Z,29.00
2018-07-08T16:44:53.879Z,29.00
2018-07-08T16:47:21.405Z,28.90
2018-07-08T16:49:48.863Z,28.90
2018-07-08T16:52:16.426Z,28.90
2018-07-08T16:54:43.940Z,28.90
2018-07-08T16:57:11.390Z,28.80
2018-07-08T16:59:39.003Z,28.80
2018-07-08T17:02:06.978Z,28.70
2018-07-08T17:04:34.744Z,28.70
2018-07-08T17:07:03.116Z,28.70
2018-07-08T17:09:30.590Z,28.70
2018-07-08T17:11:58.031Z,28.70
2018-07-08T17:14:25.561Z,28.70
2018-07-08T17:16:53.151Z,28.70
2018-07-08T17:19:20.627Z,28.70
2018-07-08T17:21:48.169Z,28.70
2018-07-08T17:24:15.820Z,28.80
2018-07-08T17:26:43.277Z,28.80
2018-07-08T17:29:10.763Z,28.90
2018-07-08T17:31:38.193Z,29.10
2018-07-08T17:34:05.693Z,29.20
2018-07-08T17:36:33.211Z,29.30
2018-07-08T17:39:00.782Z,29.40
2018-07-08T17:41:28.188Z,29.50
2018-07-08T17:43:55.751Z,29.50
2018-07-08T17:46:23.320Z,29.50
2018-07-08T17:48:51.112Z,29.50
2018-07-08T17:51:18.554Z,29.50
2018-07-08T17:53:46.003Z,29.40
2018-07-08T17:56:14.323Z,29.30
2018-07-08T17:58:41.843Z,29.30
2018-07-08T18:01:09.297Z,29.20
2018-07-08T18:03:36.807Z,29.20
2018-07-08T18:06:04.224Z,29.10
2018-07-08T18:08:32.636Z,29.10
2018-07-08T18:11:00.237Z,29.10
2018-07-08T18:13:27.787Z,29.10
2018-07-08T18:15:55.318Z,29.00
2018-07-08T18:18:23.042Z,28.90
2018-07-08T18:20:50.436Z,28.90
2018-07-08T18:23:17.895Z,28.90
2018-07-08T18:25:45.436Z,28.90
2018-07-08T18:28:12.815Z,28.80
2018-07-08T18:30:40.240Z,28.90
2018-07-08T18:33:07.647Z,28.80
2018-07-08T18:35:35.138Z,28.80
2018-07-08T18:38:02.610Z,28.80
2018-07-08T18:40:30.537Z,28.80
2018-07-08T18:42:57.943Z,28.70
2018-07-08T18:45:25.408Z,28.70
2018-07-08T18:47:52.902Z,28.70
2018-07-08T18:50:20.374Z,28.60
2018-07-08T18:52:47.776Z,28.60
2018-07-08T18:55:15.192Z,28.50
2018-07-08T18:57:42.592Z,28.50
2018-07-08T19:00:09.999Z,28.50
2018-07-08T19:02:37.489Z,28.40
2018-07-08T19:05:05.312Z,28.40
2018-07-08T19:07:33.183Z,28.30
2018-07-08T19:10:01.136Z,28.10
2018-07-08T19:12:29.172Z,28.10
2018-07-08T19:14:56.597Z,28.00
2018-07-08T19:19:51.545Z,27.80
2018-07-08T19:22:18.964Z,27.60
2018-07-08T19:24:46.386Z,27.40
2018-07-08T19:27:13.869Z,27.20
2018-07-08T19:29:41.403Z,27.00
2018-07-08T19:32:08.875Z,26.80
2018-07-08T19:34:36.595Z,26.50
2018-07-08T19:37:04.409Z,26.30
2018-07-08T19:39:31.875Z,26.00
2018-07-08T19:41:59.306Z,25.80
2018-07-08T19:44:26.769Z,25.60
2018-07-08T19:46:54.206Z,25.40
2018-07-08T19:49:21.636Z,25.20
2018-07-08T19:51:49.225Z,25.10
2018-07-08T19:54:16.745Z,24.90
2018-07-08T19:56:44.231Z,24.70
2018-07-08T19:59:11.699Z,24.60
2018-07-08T20:01:39.095Z,24.40
2018-07-08T20:04:06.511Z,24.30
2018-07-08T20:06:33.912Z,24.20
2018-07-08T20:09:01.357Z,24.00
2018-07-08T20:11:28.814Z,23.90
2018-07-08T20:13:56.308Z,23.80
2018-07-08T20:18:51.158Z,23.60
2018-07-08T20:21:18.778Z,23.50
2018-07-08T20:23:46.015Z,23.40
2018-07-08T20:26:13.431Z,23.30
2018-07-08T20:28:40.904Z,23.20
2018-07-08T20:31:08.349Z,23.10
2018-07-08T20:33:35.817Z,23.00
2018-07-08T20:36:03.272Z,23.00
2018-07-08T20:38:30.755Z,22.90
2018-07-08T20:40:58.730Z,22.80
2018-07-08T20:43:26.194Z,22.70
2018-07-08T20:45:53.672Z,22.60
2018-07-08T20:48:21.135Z,22.60
2018-07-08T20:50:48.836Z,22.50
2018-07-08T20:53:16.494Z,22.40
2018-07-08T20:55:44.082Z,22.40
2018-07-08T20:58:11.507Z,22.30
2018-07-08T21:00:38.960Z,22.20
2018-07-08T21:03:06.378Z,22.20
2018-07-08T21:05:33.833Z,22.10
2018-07-08T21:08:01.263Z,22.10
2018-07-08T21:10:29.209Z,22.00
2018-07-08T21:12:56.615Z,21.90
2018-07-08T21:17:51.558Z,21.80
2018-07-08T21:20:18.970Z,21.70
2018-07-08T21:22:46.371Z,21.70
2018-07-08T21:25:14.160Z,21.60
2018-07-08T21:27:41.589Z,21.60
2018-07-08T21:30:08.987Z,21.50
2018-07-08T21:32:36.429Z,21.40
2018-07-08T21:35:04.898Z,21.40
2018-07-08T21:37:32.340Z,21.30
2018-07-08T21:39:59.827Z,21.30
2018-07-08T21:42:27.307Z,21.20
2018-07-08T21:44:54.763Z,21.10
2018-07-08T21:47:22.172Z,21.10
2018-07-08T21:49:49.598Z,21.10
2018-07-08T21:52:16.988Z,21.00
2018-07-08T21:54:44.547Z,21.00
2018-07-08T21:57:11.945Z,20.90
2018-07-08T21:59:39.379Z,20.80
2018-07-08T22:02:10.431Z,20.80
2018-07-08T22:04:38.172Z,20.80
2018-07-08T22:07:11.240Z,20.70
2018-07-08T22:09:38.641Z,20.70
2018-07-08T22:12:06.095Z,20.60
2018-07-08T22:14:33.496Z,20.60
2018-07-08T22:17:00.983Z,20.60
2018-07-08T22:19:28.384Z,20.50
2018-07-08T22:21:55.885Z,20.50
2018-07-08T22:24:23.314Z,20.40
2018-07-08T22:26:50.719Z,20.40
2018-07-08T22:29:18.145Z,20.40
2018-07-08T22:31:45.556Z,20.30
2018-07-08T22:34:13.003Z,20.30
2018-07-08T22:36:40.394Z,20.30
2018-07-08T22:39:09.003Z,20.30
2018-07-08T22:41:36.591Z,20.20
2018-07-08T22:44:04.247Z,20.20
2018-07-08T22:46:31.786Z,20.10
2018-07-08T22:48:59.448Z,20.10
2018-07-08T22:51:26.872Z,20.10
2018-07-08T22:53:54.889Z,20.00
2018-07-08T22:56:22.648Z,20.00
2018-07-08T22:58:50.148Z,20.00
2018-07-08T23:01:29.239Z,19.90
2018-07-08T23:03:58.879Z,19.90
2018-07-08T23:06:26.292Z,19.90
2018-07-08T23:08:54.179Z,19.90
2018-07-08T23:11:22.327Z,19.80
2018-07-08T23:13:50.611Z,19.80
2018-07-08T23:16:18.273Z,19.80
2018-07-08T23:18:45.721Z,19.80
2018-07-08T23:21:13.167Z,19.70
2018-07-08T23:23:40.571Z,19.60
2018-07-08T23:26:08.007Z,19.70
2018-07-08T23:28:36.260Z,19.60
2018-07-08T23:31:04.231Z,19.60
2018-07-08T23:33:31.688Z,19.50
2018-07-08T23:35:59.973Z,19.50
2018-07-08T23:38:27.524Z,19.40
2018-07-08T23:40:54.935Z,19.50
2018-07-08T23:43:22.312Z,19.40
2018-07-08T23:45:49.726Z,19.40
2018-07-08T23:48:17.171Z,19.40
2018-07-08T23:50:44.650Z,19.30
2018-07-08T23:53:12.083Z,19.30
2018-07-08T23:55:39.503Z,19.30
2018-07-08T23:58:07.286Z,19.30
